Cedar Park, Texas
Current Conditions -  °F | °C
As of 10:35 PM on Wednesday 22 Oct 2014 (Local Time) from KRYW Reporting Station
Scattered Clouds Scattered Clouds  
Wind Chill: 72°   Ceiling: Unl
Heat Index: 72°   Visibility: 10mi
Dew Point: 59°   Wind: 7mph
Humidity: 64%   Direction: 80°E
Pressure: 30.12"   Gusts: NA
Location:  30.51°N, 97.82°W
Report Text: KRYW 230335Z AUTO 08006KT 10SM SCT110 22/15 A3012 RMK AO2 T02200148
Loading
Personal Weather Stations






























Interactive Weather Map
Tropical Storm Tracking
New forecast layout! Learn more

10-Day Weather Forecast

Advertisements
Track Severe Weather on mobile